MDT,Max TemperatureF,Mean TemperatureF,Min TemperatureF,Max Dew PointF,MeanDew PointF,Min DewpointF,Max Humidity, Mean Humidity, Min Humidity, Max Sea Level PressureIn, Mean Sea Level PressureIn, Min Sea Level PressureIn, Max VisibilityMiles, Mean VisibilityMiles, Min VisibilityMiles, Max Wind SpeedMPH, Mean Wind SpeedMPH, Max Gust SpeedMPH,PrecipitationIn, CloudCover, Events, WindDirDegrees
2012-10-1,84,71,57,37,33,27,42,29,16,30.02,29.94,29.88,10,10,10,16,6,21,0.00,0,,19
2012-10-2,86,69,52,40,34,24,47,28,8,29.98,29.87,29.76,10,10,10,10,6,18,0.00,0,,202
2012-10-3,91,78,64,27,24,19,23,14,4,29.88,29.81,29.73,10,10,10,15,9,28,0.00,0,,306
2012-10-4,90,76,63,30,26,22,24,16,8,30.01,29.91,29.81,10,10,10,29,9,45,0.00,0,,258
2012-10-5,89,72,55,34,25,16,33,20,7,30.19,29.87,29.75,10,10,10,16,8,20,0.00,0,,292
2012-10-6,84,70,62,40,27,21,43,27,11,29.91,29.79,29.67,10,10,10,17,8,22,0.00,0,,252
2012-10-7,73,60,47,39,36,32,60,45,29,29.99,29.92,29.85,10,10,10,23,9,33,0.00,0,,71
2012-10-8,86,67,48,40,32,23,56,33,10,30.00,29.88,29.75,10,10,10,22,8,26,0.00,0,,245
2012-10-9,84,69,54,34,28,26,32,23,13,29.91,29.85,29.79,10,10,10,15,6,20,0.00,0,,199
2012-10-10,84,68,53,33,30,28,38,24,8,30.00,29.90,29.81,10,10,10,15,6,22,0.00,0,,226
2012-10-11,77,64,52,45,37,27,55,35,14,29.95,29.90,29.83,10,10,10,22,6,29,0.00,1,,244
2012-10-12,82,68,53,51,37,22,84,41,7,29.96,29.86,29.75,10,10,9,33,8,44,0.02,2,Rain,238
2012-10-13,73,60,49,30,26,23,46,32,17,30.05,29.96,29.86,10,10,10,21,8,26,0.00,0,,307
2012-10-14,76,62,48,34,30,26,50,35,19,30.17,30.09,30.02,10,10,10,12,7,17,0.00,0,,341
2012-10-15,77,63,49,32,29,27,42,30,18,30.09,29.98,29.86,10,10,10,17,7,21,0.00,0,,248
2012-10-16,82,65,48,27,23,18,39,24,9,29.87,29.77,29.66,10,10,9,17,7,23,0.00,0,,237
2012-10-17,87,73,59,30,25,19,22,16,10,29.81,29.72,29.65,10,10,10,21,9,26,0.00,0,,315
2012-10-18,80,67,54,23,15,8,21,15,8,29.95,29.86,29.80,10,10,10,17,6,22,0.00,0,,354
2012-10-19,81,66,50,19,16,12,20,15,9,29.96,29.87,29.78,10,10,10,12,5,16,0.00,0,,343
2012-10-20,86,68,49,32,22,16,28,19,10,29.84,29.74,29.60,10,10,10,20,8,25,0.00,0,,271
2012-10-21,83,70,57,40,34,19,47,29,10,29.83,29.76,29.67,10,10,10,28,10,35,0.00,0,,234
2012-10-22,80,64,48,37,32,28,54,35,16,29.88,29.80,29.73,10,10,10,18,7,24,0.00,0,,203
2012-10-23,84,66,48,32,28,18,42,26,10,29.88,29.80,29.71,10,10,10,28,9,36,0.00,0,,209
2012-10-24,85,70,54,32,25,10,38,22,6,29.85,29.72,29.60,10,10,10,23,10,31,0.00,0,,239
2012-10-25,70,60,49,21,16,10,24,18,12,29.94,29.87,29.72,10,10,10,16,6,21,0.00,0,,19
2012-10-26,62,51,40,23,18,11,46,31,16,30.19,30.09,29.96,10,10,10,22,10,28,0.00,0,,15
2012-10-27,64,48,32,28,22,14,48,37,25,30.18,30.08,29.98,10,10,10,12,4,16,0.00,0,,269
2012-10-28,71,54,37,25,20,14,44,30,15,30.12,30.05,29.98,10,10,10,9,4,10,0.00,0,,312
2012-10-29,77,59,41,20,15,9,39,24,9,30.14,30.03,29.95,10,10,10,15,6,21,0.00,0,,302
2012-10-30,78,64,50,16,12,7,20,15,9,30.06,29.97,29.89,10,10,10,15,7,17,0.00,0,,353
2012-10-31,78,61,43,19,16,10,28,19,9,30.06,29.97,29.90,10,10,10,12,5,17,0.00,0,,338